sensor_id;sensor_type;location;lat;lon;timestamp;P1;durP1;ratioP1;P2;durP2;ratioP2
25567;SDS011;13455;51.480;7.594;2022-12-18T00:02:12;9.52;;;4.78;;
25567;SDS011;13455;51.480;7.594;2022-12-18T00:04:38;8.43;;;4.30;;
25567;SDS011;13455;51.480;7.594;2022-12-18T00:07:04;9.88;;;4.45;;
25567;SDS011;13455;51.480;7.594;2022-12-18T00:09:30;10.50;;;4.40;;
25567;SDS011;13455;51.480;7.594;2022-12-18T00:11:57;10.25;;;4.20;;
25567;SDS011;13455;51.480;7.594;2022-12-18T00:14:23;9.63;;;4.43;;
25567;SDS011;13455;51.480;7.594;2022-12-18T00:16:49;8.30;;;4.47;;
25567;SDS011;13455;51.480;7.594;2022-12-18T00:19:16;8.82;;;4.30;;
25567;SDS011;13455;51.480;7.594;2022-12-18T00:21:42;10.10;;;5.30;;
25567;SDS011;13455;51.480;7.594;2022-12-18T00:24:09;9.68;;;5.25;;
25567;SDS011;13455;51.480;7.594;2022-12-18T00:26:36;11.20;;;5.37;;
25567;SDS011;13455;51.480;7.594;2022-12-18T00:29:07;9.60;;;5.00;;
25567;SDS011;13455;51.480;7.594;2022-12-18T00:31:33;10.90;;;5.10;;
25567;SDS011;13455;51.480;7.594;2022-12-18T00:34:00;8.18;;;4.57;;
25567;SDS011;13455;51.480;7.594;2022-12-18T00:36:27;7.23;;;4.23;;
25567;SDS011;13455;51.480;7.594;2022-12-18T00:38:53;9.77;;;4.63;;
25567;SDS011;13455;51.480;7.594;2022-12-18T00:41:20;8.63;;;4.70;;
25567;SDS011;13455;51.480;7.594;2022-12-18T00:44:05;7.72;;;4.20;;
25567;SDS011;13455;51.480;7.594;2022-12-18T00:46:31;8.80;;;4.53;;
25567;SDS011;13455;51.480;7.594;2022-12-18T00:48:57;9.05;;;4.50;;
25567;SDS011;13455;51.480;7.594;2022-12-18T00:51:24;8.15;;;4.10;;
25567;SDS011;13455;51.480;7.594;2022-12-18T00:53:50;10.40;;;4.20;;
25567;SDS011;13455;51.480;7.594;2022-12-18T00:56:16;8.27;;;4.35;;
25567;SDS011;13455;51.480;7.594;2022-12-18T00:58:42;8.95;;;4.25;;
25567;SDS011;13455;51.480;7.594;2022-12-18T01:01:08;8.20;;;4.78;;
25567;SDS011;13455;51.480;7.594;2022-12-18T01:03:34;8.10;;;4.40;;
25567;SDS011;13455;51.480;7.594;2022-12-18T01:06:05;9.65;;;4.78;;
25567;SDS011;13455;51.480;7.594;2022-12-18T01:08:31;7.72;;;4.40;;
25567;SDS011;13455;51.480;7.594;2022-12-18T01:10:57;9.27;;;4.75;;
25567;SDS011;13455;51.480;7.594;2022-12-18T01:13:23;9.45;;;4.80;;
25567;SDS011;13455;51.480;7.594;2022-12-18T01:15:49;8.65;;;4.70;;
25567;SDS011;13455;51.480;7.594;2022-12-18T01:18:16;8.43;;;4.57;;
25567;SDS011;13455;51.480;7.594;2022-12-18T01:20:42;9.23;;;4.77;;
25567;SDS011;13455;51.480;7.594;2022-12-18T01:23:08;7.72;;;4.32;;
25567;SDS011;13455;51.480;7.594;2022-12-18T01:25:37;9.45;;;4.82;;
25567;SDS011;13455;51.480;7.594;2022-12-18T01:28:03;8.40;;;4.40;;
25567;SDS011;13455;51.480;7.594;2022-12-18T01:30:29;8.98;;;4.50;;
25567;SDS011;13455;51.480;7.594;2022-12-18T01:32:55;8.65;;;4.50;;
25567;SDS011;13455;51.480;7.594;2022-12-18T01:35:22;10.88;;;4.85;;
25567;SDS011;13455;51.480;7.594;2022-12-18T01:37:48;8.32;;;4.35;;
25567;SDS011;13455;51.480;7.594;2022-12-18T01:40:14;9.35;;;4.45;;
25567;SDS011;13455;51.480;7.594;2022-12-18T01:42:40;7.85;;;4.15;;
25567;SDS011;13455;51.480;7.594;2022-12-18T01:45:28;7.50;;;4.30;;
25567;SDS011;13455;51.480;7.594;2022-12-18T01:47:54;8.27;;;4.32;;
25567;SDS011;13455;51.480;7.594;2022-12-18T01:52:47;8.30;;;4.43;;
25567;SDS011;13455;51.480;7.594;2022-12-18T01:55:15;9.30;;;4.57;;
25567;SDS011;13455;51.480;7.594;2022-12-18T01:57:42;7.40;;;4.00;;
25567;SDS011;13455;51.480;7.594;2022-12-18T02:00:10;7.13;;;4.07;;
25567;SDS011;13455;51.480;7.594;2022-12-18T02:02:37;7.75;;;3.90;;
25567;SDS011;13455;51.480;7.594;2022-12-18T02:05:03;8.00;;;4.20;;
25567;SDS011;13455;51.480;7.594;2022-12-18T02:10:00;7.53;;;3.90;;
25567;SDS011;13455;51.480;7.594;2022-12-18T02:12:31;6.55;;;4.10;;
25567;SDS011;13455;51.480;7.594;2022-12-18T02:15:06;7.18;;;3.92;;
25567;SDS011;13455;51.480;7.594;2022-12-18T02:20:20;9.10;;;4.28;;
25567;SDS011;13455;51.480;7.594;2022-12-18T02:28:05;7.90;;;3.95;;
25567;SDS011;13455;51.480;7.594;2022-12-18T02:30:34;7.65;;;4.18;;
25567;SDS011;13455;51.480;7.594;2022-12-18T02:33:01;7.47;;;4.10;;
25567;SDS011;13455;51.480;7.594;2022-12-18T02:35:28;7.30;;;4.20;;
25567;SDS011;13455;51.480;7.594;2022-12-18T02:37:55;8.20;;;4.00;;
25567;SDS011;13455;51.480;7.594;2022-12-18T02:40:22;8.32;;;4.50;;
25567;SDS011;13455;51.480;7.594;2022-12-18T02:42:49;7.50;;;4.20;;
25567;SDS011;13455;51.480;7.594;2022-12-18T02:45:15;8.30;;;4.10;;
25567;SDS011;13455;51.480;7.594;2022-12-18T02:47:42;7.97;;;4.47;;
25567;SDS011;13455;51.480;7.594;2022-12-18T02:50:18;8.13;;;4.23;;
25567;SDS011;13455;51.480;7.594;2022-12-18T02:58:09;8.05;;;4.35;;
25567;SDS011;13455;51.480;7.594;2022-12-18T03:00:43;7.77;;;4.60;;
25567;SDS011;13455;51.480;7.594;2022-12-18T03:03:14;9.95;;;4.63;;
25567;SDS011;13455;51.480;7.594;2022-12-18T03:08:18;9.63;;;4.53;;
25567;SDS011;13455;51.480;7.594;2022-12-18T03:10:53;8.75;;;4.15;;
25567;SDS011;13455;51.480;7.594;2022-12-18T03:15:56;9.35;;;4.35;;
25567;SDS011;13455;51.480;7.594;2022-12-18T03:18:32;7.75;;;4.20;;
25567;SDS011;13455;51.480;7.594;2022-12-18T03:20:59;8.80;;;4.27;;
25567;SDS011;13455;51.480;7.594;2022-12-18T03:23:29;8.05;;;4.13;;
25567;SDS011;13455;51.480;7.594;2022-12-18T03:25:57;6.88;;;3.65;;
25567;SDS011;13455;51.480;7.594;2022-12-18T03:28:24;7.47;;;3.97;;
25567;SDS011;13455;51.480;7.594;2022-12-18T03:30:55;7.50;;;4.15;;
25567;SDS011;13455;51.480;7.594;2022-12-18T03:33:26;7.50;;;4.28;;
25567;SDS011;13455;51.480;7.594;2022-12-18T03:35:53;8.20;;;3.97;;
25567;SDS011;13455;51.480;7.594;2022-12-18T03:38:19;7.45;;;3.90;;
25567;SDS011;13455;51.480;7.594;2022-12-18T03:43:17;7.28;;;3.90;;
25567;SDS011;13455;51.480;7.594;2022-12-18T03:45:54;7.30;;;4.00;;
25567;SDS011;13455;51.480;7.594;2022-12-18T03:48:28;6.97;;;4.00;;
25567;SDS011;13455;51.480;7.594;2022-12-18T03:51:32;7.57;;;4.10;;
25567;SDS011;13455;51.480;7.594;2022-12-18T03:53:49;7.60;;;3.90;;
25567;SDS011;13455;51.480;7.594;2022-12-18T03:56:16;7.43;;;3.70;;
25567;SDS011;13455;51.480;7.594;2022-12-18T03:58:42;8.80;;;3.88;;
25567;SDS011;13455;51.480;7.594;2022-12-18T04:01:09;7.97;;;3.80;;
25567;SDS011;13455;51.480;7.594;2022-12-18T04:03:38;8.98;;;4.40;;
25567;SDS011;13455;51.480;7.594;2022-12-18T04:06:04;7.53;;;3.90;;
25567;SDS011;13455;51.480;7.594;2022-12-18T04:08:31;7.28;;;4.00;;
25567;SDS011;13455;51.480;7.594;2022-12-18T04:10:59;7.88;;;4.28;;
25567;SDS011;13455;51.480;7.594;2022-12-18T04:13:38;7.27;;;3.93;;
25567;SDS011;13455;51.480;7.594;2022-12-18T04:16:05;7.60;;;4.05;;
25567;SDS011;13455;51.480;7.594;2022-12-18T04:18:31;7.95;;;4.20;;
25567;SDS011;13455;51.480;7.594;2022-12-18T04:20:57;6.72;;;3.90;;
25567;SDS011;13455;51.480;7.594;2022-12-18T04:23:23;8.57;;;4.00;;
25567;SDS011;13455;51.480;7.594;2022-12-18T04:25:49;7.78;;;3.88;;
25567;SDS011;13455;51.480;7.594;2022-12-18T04:28:15;6.70;;;3.80;;
25567;SDS011;13455;51.480;7.594;2022-12-18T04:30:41;6.15;;;3.45;;
25567;SDS011;13455;51.480;7.594;2022-12-18T04:33:11;7.45;;;3.70;;
25567;SDS011;13455;51.480;7.594;2022-12-18T04:35:37;6.67;;;3.40;;
25567;SDS011;13455;51.480;7.594;2022-12-18T04:38:03;7.10;;;3.70;;
25567;SDS011;13455;51.480;7.594;2022-12-18T04:40:29;6.43;;;3.38;;
25567;SDS011;13455;51.480;7.594;2022-12-18T04:42:55;7.07;;;3.60;;
25567;SDS011;13455;51.480;7.594;2022-12-18T04:45:21;6.15;;;3.60;;
25567;SDS011;13455;51.480;7.594;2022-12-18T04:47:47;7.45;;;3.60;;
25567;SDS011;13455;51.480;7.594;2022-12-18T04:50:13;7.15;;;3.55;;
25567;SDS011;13455;51.480;7.594;2022-12-18T04:52:39;7.40;;;3.47;;
25567;SDS011;13455;51.480;7.594;2022-12-18T04:55:05;6.50;;;3.53;;
25567;SDS011;13455;51.480;7.594;2022-12-18T04:57:31;5.83;;;3.30;;
25567;SDS011;13455;51.480;7.594;2022-12-18T04:59:57;7.13;;;3.35;;
25567;SDS011;13455;51.480;7.594;2022-12-18T05:02:23;6.03;;;3.60;;
25567;SDS011;13455;51.480;7.594;2022-12-18T05:04:49;5.87;;;3.40;;
25567;SDS011;13455;51.480;7.594;2022-12-18T05:07:15;7.20;;;3.67;;
25567;SDS011;13455;51.480;7.594;2022-12-18T05:09:41;6.15;;;3.60;;
25567;SDS011;13455;51.480;7.594;2022-12-18T05:12:07;6.13;;;3.63;;
25567;SDS011;13455;51.480;7.594;2022-12-18T05:14:33;6.88;;;3.33;;
25567;SDS011;13455;51.480;7.594;2022-12-18T05:16:59;6.30;;;3.35;;
25567;SDS011;13455;51.480;7.594;2022-12-18T05:19:25;6.27;;;3.60;;
25567;SDS011;13455;51.480;7.594;2022-12-18T05:21:51;7.40;;;3.63;;
25567;SDS011;13455;51.480;7.594;2022-12-18T05:24:17;6.32;;;3.53;;
25567;SDS011;13455;51.480;7.594;2022-12-18T05:26:43;6.03;;;3.40;;
25567;SDS011;13455;51.480;7.594;2022-12-18T05:29:09;6.25;;;3.50;;
25567;SDS011;13455;51.480;7.594;2022-12-18T05:31:37;7.22;;;3.92;;
25567;SDS011;13455;51.480;7.594;2022-12-18T05:34:03;7.97;;;4.00;;
25567;SDS011;13455;51.480;7.594;2022-12-18T05:36:29;7.47;;;3.80;;
25567;SDS011;13455;51.480;7.594;2022-12-18T05:38:55;7.57;;;3.90;;
25567;SDS011;13455;51.480;7.594;2022-12-18T05:41:21;7.47;;;4.20;;
25567;SDS011;13455;51.480;7.594;2022-12-18T05:43:47;7.72;;;3.83;;
25567;SDS011;13455;51.480;7.594;2022-12-18T05:46:15;7.00;;;3.80;;
25567;SDS011;13455;51.480;7.594;2022-12-18T05:48:44;6.82;;;3.50;;
25567;SDS011;13455;51.480;7.594;2022-12-18T05:51:12;7.68;;;3.47;;
25567;SDS011;13455;51.480;7.594;2022-12-18T05:53:39;7.95;;;3.70;;
25567;SDS011;13455;51.480;7.594;2022-12-18T05:56:07;6.43;;;3.65;;
25567;SDS011;13455;51.480;7.594;2022-12-18T05:58:33;6.77;;;3.77;;
25567;SDS011;13455;51.480;7.594;2022-12-18T06:01:10;6.30;;;3.63;;
25567;SDS011;13455;51.480;7.594;2022-12-18T06:03:36;7.30;;;3.47;;
25567;SDS011;13455;51.480;7.594;2022-12-18T06:06:03;6.13;;;3.63;;
25567;SDS011;13455;51.480;7.594;2022-12-18T06:08:29;7.28;;;3.90;;
25567;SDS011;13455;51.480;7.594;2022-12-18T06:10:55;7.18;;;3.50;;
25567;SDS011;13455;51.480;7.594;2022-12-18T06:13:21;6.97;;;3.83;;
25567;SDS011;13455;51.480;7.594;2022-12-18T06:15:47;7.47;;;3.67;;
25567;SDS011;13455;51.480;7.594;2022-12-18T06:18:13;6.63;;;3.40;;
25567;SDS011;13455;51.480;7.594;2022-12-18T06:20:39;7.07;;;3.63;;
25567;SDS011;13455;51.480;7.594;2022-12-18T06:23:06;7.75;;;3.70;;
25567;SDS011;13455;51.480;7.594;2022-12-18T06:25:32;6.78;;;3.75;;
25567;SDS011;13455;51.480;7.594;2022-12-18T06:27:58;6.60;;;3.90;;
25567;SDS011;13455;51.480;7.594;2022-12-18T06:30:24;6.80;;;3.80;;
25567;SDS011;13455;51.480;7.594;2022-12-18T06:32:53;8.02;;;4.18;;
25567;SDS011;13455;51.480;7.594;2022-12-18T06:35:19;8.60;;;3.97;;
25567;SDS011;13455;51.480;7.594;2022-12-18T06:37:45;7.80;;;3.88;;
25567;SDS011;13455;51.480;7.594;2022-12-18T06:40:11;6.82;;;3.65;;
25567;SDS011;13455;51.480;7.594;2022-12-18T06:42:37;8.48;;;3.83;;
25567;SDS011;13455;51.480;7.594;2022-12-18T06:45:03;6.93;;;3.60;;
25567;SDS011;13455;51.480;7.594;2022-12-18T06:47:29;7.07;;;3.70;;
25567;SDS011;13455;51.480;7.594;2022-12-18T06:49:55;6.80;;;3.97;;
25567;SDS011;13455;51.480;7.594;2022-12-18T06:52:21;8.23;;;4.07;;
25567;SDS011;13455;51.480;7.594;2022-12-18T06:54:47;7.95;;;4.25;;
25567;SDS011;13455;51.480;7.594;2022-12-18T06:57:13;7.45;;;4.25;;
25567;SDS011;13455;51.480;7.594;2022-12-18T06:59:39;9.25;;;4.38;;
25567;SDS011;13455;51.480;7.594;2022-12-18T07:02:05;8.23;;;4.28;;
25567;SDS011;13455;51.480;7.594;2022-12-18T07:04:31;7.13;;;4.25;;
25567;SDS011;13455;51.480;7.594;2022-12-18T07:06:57;7.28;;;4.22;;
25567;SDS011;13455;51.480;7.594;2022-12-18T07:09:24;10.00;;;5.13;;
25567;SDS011;13455;51.480;7.594;2022-12-18T07:11:50;11.35;;;5.70;;
25567;SDS011;13455;51.480;7.594;2022-12-18T07:14:16;13.48;;;6.13;;
25567;SDS011;13455;51.480;7.594;2022-12-18T07:16:45;11.90;;;5.88;;
25567;SDS011;13455;51.480;7.594;2022-12-18T07:19:11;19.42;;;9.07;;
25567;SDS011;13455;51.480;7.594;2022-12-18T07:21:37;17.93;;;8.60;;
25567;SDS011;13455;51.480;7.594;2022-12-18T07:24:03;17.35;;;8.15;;
25567;SDS011;13455;51.480;7.594;2022-12-18T07:26:29;16.67;;;7.82;;
25567;SDS011;13455;51.480;7.594;2022-12-18T07:28:56;12.70;;;6.35;;
25567;SDS011;13455;51.480;7.594;2022-12-18T07:31:23;14.20;;;7.13;;
25567;SDS011;13455;51.480;7.594;2022-12-18T07:33:50;15.33;;;7.30;;
25567;SDS011;13455;51.480;7.594;2022-12-18T07:36:16;11.70;;;6.43;;
25567;SDS011;13455;51.480;7.594;2022-12-18T07:38:42;11.38;;;6.43;;
25567;SDS011;13455;51.480;7.594;2022-12-18T07:41:12;8.43;;;4.50;;
25567;SDS011;13455;51.480;7.594;2022-12-18T07:43:39;7.97;;;4.32;;
25567;SDS011;13455;51.480;7.594;2022-12-18T07:46:05;8.48;;;4.35;;
25567;SDS011;13455;51.480;7.594;2022-12-18T07:48:32;10.70;;;5.30;;
25567;SDS011;13455;51.480;7.594;2022-12-18T07:51:01;9.88;;;5.30;;
25567;SDS011;13455;51.480;7.594;2022-12-18T07:53:27;9.35;;;5.10;;
25567;SDS011;13455;51.480;7.594;2022-12-18T07:55:57;8.50;;;4.50;;
25567;SDS011;13455;51.480;7.594;2022-12-18T07:58:23;8.43;;;4.70;;
25567;SDS011;13455;51.480;7.594;2022-12-18T08:00:50;7.72;;;4.25;;
25567;SDS011;13455;51.480;7.594;2022-12-18T08:03:17;7.15;;;4.18;;
25567;SDS011;13455;51.480;7.594;2022-12-18T08:05:43;7.95;;;4.30;;
25567;SDS011;13455;51.480;7.594;2022-12-18T08:08:09;8.93;;;4.40;;
25567;SDS011;13455;51.480;7.594;2022-12-18T08:10:35;8.00;;;4.20;;
25567;SDS011;13455;51.480;7.594;2022-12-18T08:13:01;8.98;;;4.35;;
25567;SDS011;13455;51.480;7.594;2022-12-18T08:15:27;8.10;;;4.43;;
25567;SDS011;13455;51.480;7.594;2022-12-18T08:17:56;8.15;;;4.70;;
25567;SDS011;13455;51.480;7.594;2022-12-18T08:20:22;9.07;;;4.32;;
25567;SDS011;13455;51.480;7.594;2022-12-18T08:22:48;7.88;;;4.25;;
25567;SDS011;13455;51.480;7.594;2022-12-18T08:25:14;7.43;;;4.20;;
25567;SDS011;13455;51.480;7.594;2022-12-18T08:27:40;7.60;;;4.07;;
25567;SDS011;13455;51.480;7.594;2022-12-18T08:30:06;7.85;;;4.20;;
25567;SDS011;13455;51.480;7.594;2022-12-18T08:32:32;7.50;;;3.80;;
25567;SDS011;13455;51.480;7.594;2022-12-18T08:34:58;7.75;;;4.10;;
25567;SDS011;13455;51.480;7.594;2022-12-18T08:37:24;7.63;;;4.25;;
25567;SDS011;13455;51.480;7.594;2022-12-18T08:39:50;8.17;;;4.00;;
25567;SDS011;13455;51.480;7.594;2022-12-18T08:42:15;6.53;;;3.75;;
25567;SDS011;13455;51.480;7.594;2022-12-18T08:45:00;7.03;;;3.80;;
25567;SDS011;13455;51.480;7.594;2022-12-18T08:47:25;6.63;;;3.70;;
25567;SDS011;13455;51.480;7.594;2022-12-18T08:49:51;7.53;;;3.70;;
25567;SDS011;13455;51.480;7.594;2022-12-18T08:52:18;6.50;;;3.75;;
25567;SDS011;13455;51.480;7.594;2022-12-18T08:54:44;6.90;;;3.60;;
25567;SDS011;13455;51.480;7.594;2022-12-18T08:57:13;7.20;;;3.38;;
25567;SDS011;13455;51.480;7.594;2022-12-18T08:59:39;6.53;;;3.30;;
25567;SDS011;13455;51.480;7.594;2022-12-18T09:02:05;6.07;;;3.40;;
25567;SDS011;13455;51.480;7.594;2022-12-18T09:04:31;6.60;;;3.40;;
25567;SDS011;13455;51.480;7.594;2022-12-18T09:06:57;8.63;;;3.87;;
25567;SDS011;13455;51.480;7.594;2022-12-18T09:09:22;7.60;;;3.87;;
25567;SDS011;13455;51.480;7.594;2022-12-18T09:11:48;7.53;;;3.80;;
25567;SDS011;13455;51.480;7.594;2022-12-18T09:14:14;7.25;;;3.70;;
25567;SDS011;13455;51.480;7.594;2022-12-18T09:16:40;7.97;;;3.95;;
25567;SDS011;13455;51.480;7.594;2022-12-18T09:19:06;7.82;;;3.92;;
25567;SDS011;13455;51.480;7.594;2022-12-18T09:21:33;6.28;;;3.85;;
25567;SDS011;13455;51.480;7.594;2022-12-18T09:23:59;6.20;;;3.55;;
25567;SDS011;13455;51.480;7.594;2022-12-18T09:26:25;5.93;;;3.58;;
25567;SDS011;13455;51.480;7.594;2022-12-18T09:28:52;8.43;;;3.73;;
25567;SDS011;13455;51.480;7.594;2022-12-18T09:31:19;8.32;;;4.13;;
25567;SDS011;13455;51.480;7.594;2022-12-18T09:33:45;7.73;;;3.30;;
25567;SDS011;13455;51.480;7.594;2022-12-18T09:36:12;5.72;;;3.47;;
25567;SDS011;13455;51.480;7.594;2022-12-18T09:38:38;7.63;;;3.95;;
25567;SDS011;13455;51.480;7.594;2022-12-18T09:43:35;10.35;;;4.45;;
25567;SDS011;13455;51.480;7.594;2022-12-18T09:46:04;8.88;;;3.83;;
25567;SDS011;13455;51.480;7.594;2022-12-18T09:48:41;9.07;;;3.20;;
25567;SDS011;13455;51.480;7.594;2022-12-18T09:51:11;7.93;;;3.58;;
25567;SDS011;13455;51.480;7.594;2022-12-18T09:53:49;6.18;;;3.45;;
25567;SDS011;13455;51.480;7.594;2022-12-18T09:56:17;8.85;;;4.20;;
25567;SDS011;13455;51.480;7.594;2022-12-18T09:58:49;6.88;;;3.22;;
25567;SDS011;13455;51.480;7.594;2022-12-18T10:01:25;6.50;;;3.40;;
25567;SDS011;13455;51.480;7.594;2022-12-18T10:03:52;8.02;;;3.40;;
25567;SDS011;13455;51.480;7.594;2022-12-18T10:06:31;6.25;;;3.22;;
25567;SDS011;13455;51.480;7.594;2022-12-18T10:14:41;8.35;;;3.20;;
25567;SDS011;13455;51.480;7.594;2022-12-18T10:19:55;6.47;;;3.17;;
25567;SDS011;13455;51.480;7.594;2022-12-18T10:25:15;7.55;;;3.28;;
25567;SDS011;13455;51.480;7.594;2022-12-18T10:27:46;6.70;;;2.85;;
25567;SDS011;13455;51.480;7.594;2022-12-18T10:30:14;7.20;;;3.00;;
25567;SDS011;13455;51.480;7.594;2022-12-18T10:32:41;5.57;;;3.00;;
25567;SDS011;13455;51.480;7.594;2022-12-18T10:35:07;13.80;;;3.50;;
25567;SDS011;13455;51.480;7.594;2022-12-18T10:38:04;9.17;;;3.67;;
25567;SDS011;13455;51.480;7.594;2022-12-18T10:40:32;7.20;;;3.10;;
25567;SDS011;13455;51.480;7.594;2022-12-18T10:43:13;7.10;;;2.90;;
25567;SDS011;13455;51.480;7.594;2022-12-18T10:45:40;8.82;;;2.97;;
25567;SDS011;13455;51.480;7.594;2022-12-18T10:48:19;6.78;;;2.78;;
25567;SDS011;13455;51.480;7.594;2022-12-18T10:50:47;5.47;;;2.67;;
25567;SDS011;13455;51.480;7.594;2022-12-18T10:53:22;4.95;;;2.72;;
25567;SDS011;13455;51.480;7.594;2022-12-18T10:55:49;7.53;;;3.90;;
25567;SDS011;13455;51.480;7.594;2022-12-18T11:01:13;7.47;;;4.03;;
25567;SDS011;13455;51.480;7.594;2022-12-18T11:03:41;16.48;;;7.15;;
25567;SDS011;13455;51.480;7.594;2022-12-18T11:06:18;7.55;;;3.95;;
25567;SDS011;13455;51.480;7.594;2022-12-18T11:09:00;8.80;;;4.53;;
25567;SDS011;13455;51.480;7.594;2022-12-18T11:11:30;7.68;;;3.80;;
25567;SDS011;13455;51.480;7.594;2022-12-18T11:14:04;9.17;;;3.30;;
25567;SDS011;13455;51.480;7.594;2022-12-18T11:16:36;6.30;;;2.70;;
25567;SDS011;13455;51.480;7.594;2022-12-18T11:21:53;6.45;;;3.00;;
25567;SDS011;13455;51.480;7.594;2022-12-18T11:24:25;6.13;;;2.75;;
25567;SDS011;13455;51.480;7.594;2022-12-18T11:26:52;7.13;;;2.70;;
25567;SDS011;13455;51.480;7.594;2022-12-18T11:29:22;6.07;;;2.78;;
25567;SDS011;13455;51.480;7.594;2022-12-18T11:31:52;4.60;;;2.58;;
25567;SDS011;13455;51.480;7.594;2022-12-18T11:34:34;6.20;;;2.60;;
25567;SDS011;13455;51.480;7.594;2022-12-18T11:37:01;6.13;;;2.60;;
25567;SDS011;13455;51.480;7.594;2022-12-18T11:39:42;4.78;;;2.50;;
25567;SDS011;13455;51.480;7.594;2022-12-18T11:42:12;8.73;;;4.25;;
25567;SDS011;13455;51.480;7.594;2022-12-18T11:45:00;9.73;;;4.80;;
25567;SDS011;13455;51.480;7.594;2022-12-18T11:50:13;4.72;;;2.55;;
25567;SDS011;13455;51.480;7.594;2022-12-18T11:52:40;4.82;;;2.50;;
25567;SDS011;13455;51.480;7.594;2022-12-18T11:55:11;5.40;;;2.50;;
25567;SDS011;13455;51.480;7.594;2022-12-18T12:00:07;6.88;;;3.30;;
25567;SDS011;13455;51.480;7.594;2022-12-18T12:02:41;7.25;;;3.47;;
25567;SDS011;13455;51.480;7.594;2022-12-18T12:07:47;5.82;;;2.90;;
25567;SDS011;13455;51.480;7.594;2022-12-18T12:13:13;6.30;;;3.00;;
25567;SDS011;13455;51.480;7.594;2022-12-18T12:26:12;6.60;;;3.10;;
25567;SDS011;13455;51.480;7.594;2022-12-18T12:36:33;6.82;;;3.10;;
25567;SDS011;13455;51.480;7.594;2022-12-18T12:39:06;6.60;;;3.10;;
25567;SDS011;13455;51.480;7.594;2022-12-18T12:41:39;6.50;;;3.10;;
25567;SDS011;13455;51.480;7.594;2022-12-18T12:44:30;6.13;;;3.07;;
25567;SDS011;13455;51.480;7.594;2022-12-18T12:47:01;6.45;;;3.20;;
25567;SDS011;13455;51.480;7.594;2022-12-18T12:49:31;7.07;;;3.30;;
25567;SDS011;13455;51.480;7.594;2022-12-18T12:52:00;8.48;;;3.40;;
25567;SDS011;13455;51.480;7.594;2022-12-18T12:54:29;6.28;;;3.30;;
25567;SDS011;13455;51.480;7.594;2022-12-18T12:56:59;9.18;;;4.25;;
25567;SDS011;13455;51.480;7.594;2022-12-18T12:59:30;11.27;;;4.70;;
25567;SDS011;13455;51.480;7.594;2022-12-18T13:02:29;7.35;;;3.60;;
25567;SDS011;13455;51.480;7.594;2022-12-18T13:08:09;8.37;;;3.23;;
25567;SDS011;13455;51.480;7.594;2022-12-18T13:10:40;7.60;;;3.30;;
25567;SDS011;13455;51.480;7.594;2022-12-18T13:15:42;6.15;;;3.67;;
25567;SDS011;13455;51.480;7.594;2022-12-18T13:28:21;7.53;;;3.53;;
25567;SDS011;13455;51.480;7.594;2022-12-18T13:31:07;7.37;;;3.43;;
25567;SDS011;13455;51.480;7.594;2022-12-18T13:36:12;8.18;;;3.72;;
25567;SDS011;13455;51.480;7.594;2022-12-18T13:38:40;8.18;;;3.80;;
25567;SDS011;13455;51.480;7.594;2022-12-18T13:43:33;6.53;;;3.30;;
25567;SDS011;13455;51.480;7.594;2022-12-18T13:46:18;5.55;;;3.30;;
25567;SDS011;13455;51.480;7.594;2022-12-18T13:49:06;6.55;;;3.28;;
25567;SDS011;13455;51.480;7.594;2022-12-18T13:51:49;6.82;;;3.33;;
25567;SDS011;13455;51.480;7.594;2022-12-18T13:54:35;6.88;;;3.22;;
25567;SDS011;13455;51.480;7.594;2022-12-18T13:57:02;6.40;;;3.38;;
25567;SDS011;13455;51.480;7.594;2022-12-18T13:59:37;5.13;;;3.25;;
25567;SDS011;13455;51.480;7.594;2022-12-18T14:02:13;10.73;;;5.68;;
25567;SDS011;13455;51.480;7.594;2022-12-18T14:04:39;9.10;;;5.13;;
25567;SDS011;13455;51.480;7.594;2022-12-18T14:07:15;6.50;;;3.87;;
25567;SDS011;13455;51.480;7.594;2022-12-18T14:09:45;6.38;;;3.70;;
25567;SDS011;13455;51.480;7.594;2022-12-18T14:12:17;6.90;;;4.10;;
25567;SDS011;13455;51.480;7.594;2022-12-18T14:15:03;7.00;;;3.80;;
25567;SDS011;13455;51.480;7.594;2022-12-18T14:17:30;8.17;;;4.77;;
25567;SDS011;13455;51.480;7.594;2022-12-18T14:19:56;7.47;;;4.13;;
25567;SDS011;13455;51.480;7.594;2022-12-18T14:22:24;7.18;;;4.20;;
25567;SDS011;13455;51.480;7.594;2022-12-18T14:27:51;6.65;;;4.20;;
25567;SDS011;13455;51.480;7.594;2022-12-18T14:32:59;8.95;;;4.80;;
25567;SDS011;13455;51.480;7.594;2022-12-18T14:35:25;7.97;;;4.30;;
25567;SDS011;13455;51.480;7.594;2022-12-18T14:37:51;8.43;;;4.70;;
25567;SDS011;13455;51.480;7.594;2022-12-18T14:40:17;9.43;;;4.95;;
25567;SDS011;13455;51.480;7.594;2022-12-18T14:42:43;8.77;;;4.90;;
25567;SDS011;13455;51.480;7.594;2022-12-18T14:47:54;9.30;;;5.57;;
25567;SDS011;13455;51.480;7.594;2022-12-18T14:50:20;11.70;;;5.68;;
25567;SDS011;13455;51.480;7.594;2022-12-18T14:52:46;9.80;;;5.47;;
25567;SDS011;13455;51.480;7.594;2022-12-18T14:55:18;10.55;;;6.07;;
25567;SDS011;13455;51.480;7.594;2022-12-18T14:57:45;10.07;;;5.65;;
25567;SDS011;13455;51.480;7.594;2022-12-18T15:00:15;12.35;;;5.78;;
25567;SDS011;13455;51.480;7.594;2022-12-18T15:02:41;10.75;;;6.55;;
25567;SDS011;13455;51.480;7.594;2022-12-18T15:07:47;10.65;;;6.18;;
25567;SDS011;13455;51.480;7.594;2022-12-18T15:12:44;10.63;;;6.18;;
25567;SDS011;13455;51.480;7.594;2022-12-18T15:18:01;12.93;;;6.70;;
25567;SDS011;13455;51.480;7.594;2022-12-18T15:20:27;10.87;;;6.53;;
25567;SDS011;13455;51.480;7.594;2022-12-18T15:22:54;10.98;;;6.47;;
25567;SDS011;13455;51.480;7.594;2022-12-18T15:25:32;11.75;;;6.72;;
25567;SDS011;13455;51.480;7.594;2022-12-18T15:28:01;12.45;;;7.00;;
25567;SDS011;13455;51.480;7.594;2022-12-18T15:30:27;14.27;;;7.43;;
25567;SDS011;13455;51.480;7.594;2022-12-18T15:33:16;12.52;;;6.95;;
25567;SDS011;13455;51.480;7.594;2022-12-18T15:35:39;12.93;;;7.30;;
25567;SDS011;13455;51.480;7.594;2022-12-18T15:38:06;12.85;;;7.50;;
25567;SDS011;13455;51.480;7.594;2022-12-18T15:40:32;13.10;;;7.70;;
25567;SDS011;13455;51.480;7.594;2022-12-18T15:42:58;14.68;;;8.77;;
25567;SDS011;13455;51.480;7.594;2022-12-18T15:45:43;15.07;;;8.52;;
25567;SDS011;13455;51.480;7.594;2022-12-18T15:48:15;15.73;;;9.50;;
25567;SDS011;13455;51.480;7.594;2022-12-18T15:50:43;18.33;;;9.50;;
25567;SDS011;13455;51.480;7.594;2022-12-18T15:53:09;18.20;;;10.30;;
25567;SDS011;13455;51.480;7.594;2022-12-18T15:55:35;18.60;;;10.23;;
25567;SDS011;13455;51.480;7.594;2022-12-18T15:58:20;20.10;;;10.52;;
25567;SDS011;13455;51.480;7.594;2022-12-18T16:00:46;20.48;;;10.88;;
25567;SDS011;13455;51.480;7.594;2022-12-18T16:03:12;15.85;;;9.23;;
25567;SDS011;13455;51.480;7.594;2022-12-18T16:05:38;17.80;;;9.73;;
25567;SDS011;13455;51.480;7.594;2022-12-18T16:08:04;17.50;;;9.37;;
25567;SDS011;13455;51.480;7.594;2022-12-18T16:10:30;17.55;;;10.18;;
25567;SDS011;13455;51.480;7.594;2022-12-18T16:12:56;18.70;;;10.30;;
25567;SDS011;13455;51.480;7.594;2022-12-18T16:15:22;18.27;;;10.05;;
25567;SDS011;13455;51.480;7.594;2022-12-18T16:17:48;19.95;;;10.30;;
25567;SDS011;13455;51.480;7.594;2022-12-18T16:20:15;17.23;;;9.73;;
25567;SDS011;13455;51.480;7.594;2022-12-18T16:22:41;18.35;;;10.45;;
25567;SDS011;13455;51.480;7.594;2022-12-18T16:25:15;17.67;;;10.18;;
25567;SDS011;13455;51.480;7.594;2022-12-18T16:27:41;18.13;;;10.50;;
25567;SDS011;13455;51.480;7.594;2022-12-18T16:30:12;17.70;;;10.50;;
25567;SDS011;13455;51.480;7.594;2022-12-18T16:32:38;17.95;;;10.32;;
25567;SDS011;13455;51.480;7.594;2022-12-18T16:35:04;17.55;;;10.23;;
25567;SDS011;13455;51.480;7.594;2022-12-18T16:37:30;21.95;;;11.23;;
25567;SDS011;13455;51.480;7.594;2022-12-18T16:39:56;18.63;;;10.47;;
25567;SDS011;13455;51.480;7.594;2022-12-18T16:42:22;18.23;;;10.43;;
25567;SDS011;13455;51.480;7.594;2022-12-18T16:44:49;18.50;;;10.67;;
25567;SDS011;13455;51.480;7.594;2022-12-18T16:47:15;19.42;;;10.70;;